createdAt,value
2022-10-19T00:01:25.238Z,101050.20
2022-10-19T00:03:58.424Z,101051.40
2022-10-19T00:06:28.934Z,101051.40
2022-10-19T00:08:59.132Z,101057.80
2022-10-19T00:11:31.182Z,101061.40
2022-10-19T00:14:00.305Z,101052.00
2022-10-19T00:16:31.021Z,101059.60
2022-10-19T00:19:01.055Z,101052.40
2022-10-19T00:21:29.906Z,101056.40
2022-10-19T00:23:58.315Z,101059.20
2022-10-19T00:26:27.477Z,101056.60
2022-10-19T00:28:56.796Z,101057.80
2022-10-19T00:31:25.780Z,101060.80
2022-10-19T00:33:55.859Z,101061.20
2022-10-19T00:36:26.771Z,101062.40
2022-10-19T00:38:56.143Z,101054.40
2022-10-19T00:41:26.607Z,101053.00
2022-10-19T00:43:58.595Z,101046.40
2022-10-19T00:46:28.367Z,101049.00
2022-10-19T00:49:01.772Z,101048.60
2022-10-19T00:51:33.337Z,101048.80
2022-10-19T00:54:05.808Z,101044.40
2022-10-19T00:56:37.755Z,101046.40
2022-10-19T00:59:07.635Z,101046.40
2022-10-19T01:01:36.546Z,101046.40
2022-10-19T01:04:05.610Z,101047.40
2022-10-19T01:06:35.151Z,101048.80
2022-10-19T01:09:03.768Z,101050.60
2022-10-19T01:11:40.519Z,101044.60
2022-10-19T01:14:22.944Z,101044.20
2022-10-19T01:17:00.136Z,101046.60
2022-10-19T01:19:50.187Z,101041.20
2022-10-19T01:22:30.337Z,101037.60
2022-10-19T01:25:14.499Z,101041.80
2022-10-19T01:28:03.653Z,101036.80
2022-10-19T01:30:45.598Z,101033.60
2022-10-19T01:33:28.193Z,101023.40
2022-10-19T01:36:06.522Z,101023.40
2022-10-19T01:38:42.342Z,101021.40
2022-10-19T01:41:17.513Z,101020.80
2022-10-19T01:43:55.306Z,101029.00
2022-10-19T01:46:31.846Z,101032.40
2022-10-19T01:49:04.178Z,101030.00
2022-10-19T01:51:35.490Z,101031.80
2022-10-19T01:54:13.514Z,101039.80
2022-10-19T01:56:44.630Z,101037.60
2022-10-19T01:59:14.236Z,101034.20
2022-10-19T02:01:46.095Z,101034.20
2022-10-19T02:04:21.527Z,101034.00
2022-10-19T02:06:50.745Z,101026.20
2022-10-19T02:09:19.566Z,101021.00
2022-10-19T02:11:51.263Z,101018.40
2022-10-19T02:14:27.658Z,101022.40
2022-10-19T02:17:03.106Z,101023.40
2022-10-19T02:19:31.462Z,101020.00
2022-10-19T02:22:00.118Z,101025.00
2022-10-19T02:24:28.298Z,101024.00
2022-10-19T02:26:57.375Z,101024.00
2022-10-19T02:29:26.124Z,101022.40
2022-10-19T02:31:54.621Z,101015.80
2022-10-19T02:34:23.204Z,101015.80
2022-10-19T02:36:52.178Z,101016.20
2022-10-19T02:39:20.980Z,101017.20
2022-10-19T02:41:55.516Z,101017.40
2022-10-19T02:44:27.558Z,101017.00
2022-10-19T02:47:02.521Z,101017.80
2022-10-19T02:49:34.069Z,101015.60
2022-10-19T02:52:06.556Z,101017.20
2022-10-19T02:54:35.332Z,101016.40
2022-10-19T02:57:13.042Z,101017.00
2022-10-19T02:59:41.664Z,101013.20
2022-10-19T03:02:10.283Z,101011.80
2022-10-19T03:04:38.725Z,101017.40
2022-10-19T03:07:07.243Z,101008.40
2022-10-19T03:09:35.720Z,101008.80
2022-10-19T03:12:06.391Z,101009.60
2022-10-19T03:14:35.379Z,101007.80
2022-10-19T03:17:04.061Z,101003.60
2022-10-19T03:19:33.968Z,101008.00
2022-10-19T03:22:02.870Z,101001.60
2022-10-19T03:24:31.754Z,101006.40
2022-10-19T03:27:00.472Z,101005.80
2022-10-19T03:29:29.049Z,101002.80
2022-10-19T03:31:57.599Z,100998.40
2022-10-19T03:34:26.003Z,101005.40
2022-10-19T03:36:56.052Z,100996.80
2022-10-19T03:39:24.636Z,100999.40
2022-10-19T03:41:53.237Z,100995.80
2022-10-19T03:44:21.698Z,101001.40
2022-10-19T03:46:50.103Z,100998.00
2022-10-19T03:49:18.501Z,100991.60
2022-10-19T03:51:47.146Z,100993.80
2022-10-19T03:54:16.836Z,100997.00
2022-10-19T03:56:45.577Z,100994.60
2022-10-19T03:59:15.309Z,100996.40
2022-10-19T04:01:45.953Z,100996.40
2022-10-19T04:04:16.544Z,100990.80
2022-10-19T04:06:48.242Z,100993.00
2022-10-19T04:09:18.728Z,100998.60
2022-10-19T04:11:47.793Z,100993.00
2022-10-19T04:14:26.939Z,100984.20
2022-10-19T04:17:01.650Z,100992.20
2022-10-19T04:19:30.293Z,100998.60
2022-10-19T04:22:01.746Z,101002.60
2022-10-19T04:24:30.129Z,101006.80
2022-10-19T04:26:58.811Z,101005.80
2022-10-19T04:29:29.781Z,101004.20
2022-10-19T04:31:59.660Z,101005.40
2022-10-19T04:34:28.110Z,101003.80
2022-10-19T04:36:58.752Z,101004.60
2022-10-19T04:39:27.403Z,101000.60
2022-10-19T04:41:58.319Z,101003.60
2022-10-19T04:44:27.226Z,101002.40
2022-10-19T04:46:56.716Z,101003.60
2022-10-19T04:49:25.241Z,100999.80
2022-10-19T04:52:02.804Z,100997.20
2022-10-19T04:54:33.267Z,100995.80
2022-10-19T04:57:01.960Z,101000.60
2022-10-19T04:59:30.754Z,100995.00
2022-10-19T05:01:59.081Z,101001.80
2022-10-19T05:04:27.678Z,101005.80
2022-10-19T05:06:57.426Z,101006.60
2022-10-19T05:09:26.170Z,101003.40
2022-10-19T05:11:54.814Z,101009.80
2022-10-19T05:14:24.074Z,101004.80
2022-10-19T05:16:52.530Z,101003.40
2022-10-19T05:19:20.998Z,100996.80
2022-10-19T05:21:51.828Z,101002.00
2022-10-19T05:24:20.233Z,101001.00
2022-10-19T05:26:51.193Z,101001.20
2022-10-19T05:29:19.935Z,101002.80
2022-10-19T05:31:48.372Z,101008.80
2022-10-19T05:34:16.890Z,101006.60
2022-10-19T05:36:45.304Z,101007.20
2022-10-19T05:39:16.186Z,101015.00
2022-10-19T05:41:45.975Z,101012.20
2022-10-19T05:44:17.470Z,101012.80
2022-10-19T05:46:46.416Z,101011.20
2022-10-19T05:49:16.571Z,101019.20
2022-10-19T05:51:45.162Z,101018.80
2022-10-19T05:54:14.843Z,101019.20
2022-10-19T05:56:44.116Z,101025.00
2022-10-19T05:59:15.940Z,101029.20
2022-10-19T06:01:44.898Z,101030.00
2022-10-19T06:04:14.549Z,101035.80
2022-10-19T06:06:43.420Z,101034.00
2022-10-19T06:09:12.342Z,101034.00
2022-10-19T06:11:41.997Z,101035.00
2022-10-19T06:14:14.410Z,101038.00
2022-10-19T06:16:45.092Z,101041.40
2022-10-19T06:19:13.756Z,101041.20
2022-10-19T06:21:45.720Z,101042.00
2022-10-19T06:24:14.733Z,101046.60
2022-10-19T06:26:43.499Z,101046.60
2022-10-19T06:29:12.559Z,101045.60
2022-10-19T06:35:03.573Z,101052.40
2022-10-19T06:37:32.184Z,101052.60
2022-10-19T06:40:04.727Z,101059.80
2022-10-19T06:42:38.323Z,101057.60
2022-10-19T06:45:09.396Z,101050.60
2022-10-19T06:47:38.541Z,101052.00
2022-10-19T06:50:08.760Z,101054.60
2022-10-19T06:52:37.683Z,101059.80
2022-10-19T06:55:08.211Z,101057.60
2022-10-19T06:57:39.645Z,101057.80
2022-10-19T07:00:11.281Z,101056.80
2022-10-19T07:02:39.992Z,101061.40
2022-10-19T07:05:09.398Z,101064.60
2022-10-19T07:07:38.218Z,101063.60
2022-10-19T07:10:08.019Z,101070.00
2022-10-19T07:12:36.770Z,101078.40
2022-10-19T07:15:07.023Z,101077.80
2022-10-19T07:17:35.715Z,101075.80
2022-10-19T07:20:06.425Z,101082.00
2022-10-19T07:22:35.106Z,101082.60
2022-10-19T07:25:04.214Z,101081.40
2022-10-19T07:27:37.739Z,101085.00
2022-10-19T07:30:09.131Z,101082.80
2022-10-19T07:32:37.735Z,101093.00
2022-10-19T07:35:07.446Z,101086.60
2022-10-19T07:37:36.145Z,101092.60
2022-10-19T07:40:05.830Z,101091.60
2022-10-19T07:42:38.029Z,101090.40
2022-10-19T07:45:08.367Z,101090.80
2022-10-19T07:47:36.782Z,101094.40
2022-10-19T07:50:06.215Z,101093.20
2022-10-19T07:52:36.852Z,101096.00
2022-10-19T07:55:06.843Z,101094.60
2022-10-19T07:57:35.456Z,101093.60
2022-10-19T08:00:05.332Z,101093.40
2022-10-19T08:02:59.807Z,101097.40
2022-10-19T08:05:33.678Z,101094.40
2022-10-19T08:08:08.921Z,101101.80
2022-10-19T08:10:42.550Z,101099.40
2022-10-19T08:13:11.840Z,101107.80
2022-10-19T08:15:40.439Z,101103.40
2022-10-19T08:18:08.938Z,101088.40
2022-10-19T08:20:37.222Z,101097.40
2022-10-19T08:23:06.574Z,101106.00
2022-10-19T08:25:35.081Z,101107.60
2022-10-19T08:28:03.669Z,101103.80
2022-10-19T08:30:33.558Z,101107.40
2022-10-19T08:33:03.861Z,101099.40
2022-10-19T08:35:33.528Z,101102.40
2022-10-19T08:38:02.852Z,101105.00
2022-10-19T08:40:31.740Z,101103.00
2022-10-19T08:43:05.219Z,101100.80
2022-10-19T08:45:42.666Z,101102.60
2022-10-19T08:48:27.271Z,101102.00
2022-10-19T08:50:57.987Z,101099.40
2022-10-19T08:53:35.546Z,101101.20
2022-10-19T08:56:26.992Z,101105.00
2022-10-19T08:59:13.729Z,101104.20
2022-10-19T09:01:48.251Z,101098.60
2022-10-19T09:04:22.867Z,101105.40
2022-10-19T09:07:01.395Z,101105.80
2022-10-19T09:09:32.020Z,101102.80
2022-10-19T09:12:05.525Z,101104.20
2022-10-19T09:14:40.664Z,101102.60
2022-10-19T09:17:14.379Z,101099.40
2022-10-19T09:19:47.268Z,101105.80
2022-10-19T09:22:21.303Z,101107.00
2022-10-19T09:24:52.322Z,101113.80
2022-10-19T09:27:23.743Z,101115.40
2022-10-19T09:29:56.526Z,101120.00
2022-10-19T09:32:32.464Z,101123.20
2022-10-19T09:35:03.966Z,101121.40
2022-10-19T09:37:38.063Z,101121.60
2022-10-19T09:40:11.717Z,101122.80
2022-10-19T09:42:40.444Z,101123.00
2022-10-19T09:45:25.811Z,101129.60
2022-10-19T09:47:54.207Z,101121.60
2022-10-19T09:50:24.897Z,101134.80
2022-10-19T09:52:55.117Z,101133.60
2022-10-19T09:55:28.718Z,101134.60
2022-10-19T09:58:02.261Z,101136.20
2022-10-19T10:00:36.850Z,101135.60
2022-10-19T10:03:06.943Z,101135.20
2022-10-19T10:05:37.446Z,101136.40
2022-10-19T10:08:14.198Z,101132.60
2022-10-19T10:10:46.875Z,101133.00
2022-10-19T10:13:27.486Z,101132.00
2022-10-19T10:16:00.187Z,101139.40
2022-10-19T10:18:30.143Z,101142.20
2022-10-19T10:21:06.952Z,101136.80
2022-10-19T10:23:36.998Z,101137.80
2022-10-19T10:26:15.651Z,101130.40
2022-10-19T10:28:51.100Z,101134.00
2022-10-19T10:31:24.807Z,101131.40
2022-10-19T10:34:22.503Z,101134.20
2022-10-19T10:36:59.252Z,101131.20
2022-10-19T10:39:28.872Z,101138.20
2022-10-19T10:42:06.733Z,101136.20
2022-10-19T10:44:36.222Z,101137.80
2022-10-19T10:47:13.172Z,101135.00
2022-10-19T10:49:42.672Z,101131.00
2022-10-19T10:52:14.697Z,101127.40
2022-10-19T10:54:59.491Z,101129.80
2022-10-19T10:57:32.773Z,101126.20
2022-10-19T11:00:07.774Z,101123.40
2022-10-19T11:02:45.811Z,101132.80
2022-10-19T11:05:20.040Z,101130.20
2022-10-19T11:07:53.237Z,101127.00
2022-10-19T11:10:28.296Z,101127.60
2022-10-19T11:13:18.834Z,101132.80
2022-10-19T11:15:56.547Z,101129.60
2022-10-19T11:18:29.965Z,101131.00
2022-10-19T11:21:05.873Z,101128.80
2022-10-19T11:23:51.831Z,101135.00
2022-10-19T11:26:32.887Z,101134.20
2022-10-19T11:29:17.132Z,101137.20
2022-10-19T11:31:50.526Z,101131.20
2022-10-19T11:34:36.444Z,101127.80
2022-10-19T11:37:16.173Z,101129.40
2022-10-19T11:39:58.371Z,101127.40
2022-10-19T11:42:42.791Z,101136.20
2022-10-19T11:45:21.724Z,101137.80
2022-10-19T11:48:06.594Z,101141.00
2022-10-19T11:50:49.731Z,101143.80
2022-10-19T11:53:35.099Z,101141.40
2022-10-19T11:56:09.114Z,101138.80
2022-10-19T11:58:59.664Z,101134.00
2022-10-19T12:01:39.837Z,101129.80
2022-10-19T12:04:50.619Z,101125.60
2022-10-19T12:07:35.468Z,101124.60
2022-10-19T12:10:16.627Z,101126.80
2022-10-19T12:12:48.512Z,101121.20
2022-10-19T12:15:23.516Z,101134.20
2022-10-19T12:17:54.625Z,101133.60
2022-10-19T12:20:29.653Z,101137.40
2022-10-19T12:23:00.002Z,101146.20
2022-10-19T12:25:28.636Z,101145.60
2022-10-19T12:27:57.988Z,101144.80
2022-10-19T12:30:26.594Z,101141.00
2022-10-19T12:33:03.406Z,101138.60
2022-10-19T12:35:52.360Z,101139.60
2022-10-19T12:38:29.887Z,101142.00
2022-10-19T12:41:06.054Z,101139.80
2022-10-19T12:43:42.997Z,101141.80
2022-10-19T12:46:21.782Z,101142.20
2022-10-19T12:49:38.094Z,101144.20
2022-10-19T12:52:07.736Z,101146.40
2022-10-19T12:54:39.603Z,101145.40
2022-10-19T12:57:23.997Z,101146.80
2022-10-19T13:00:02.459Z,101141.60
2022-10-19T13:02:35.454Z,101143.60
2022-10-19T13:05:06.078Z,101142.00
2022-10-19T13:07:36.970Z,101144.00
2022-10-19T13:10:19.817Z,101146.80
2022-10-19T13:12:48.840Z,101140.40
2022-10-19T13:15:56.330Z,101148.40
2022-10-19T13:19:07.558Z,101147.80
2022-10-19T13:21:59.617Z,101147.60
2022-10-19T13:24:38.367Z,101145.60
2022-10-19T13:27:36.049Z,101146.00
2022-10-19T13:30:26.326Z,101142.20
2022-10-19T13:33:40.428Z,101138.80
2022-10-19T13:36:12.893Z,101133.20
2022-10-19T13:38:46.537Z,101135.80
2022-10-19T13:41:21.124Z,101134.00
2022-10-19T13:44:18.534Z,101138.00
2022-10-19T13:47:12.329Z,101137.20
2022-10-19T13:50:14.283Z,101129.00
2022-10-19T13:53:20.132Z,101129.20
2022-10-19T13:56:35.667Z,101125.80
2022-10-19T13:59:42.442Z,101131.00
2022-10-19T14:02:50.933Z,101130.40
2022-10-19T14:05:43.300Z,101130.60
2022-10-19T14:08:30.535Z,101131.40
2022-10-19T14:11:05.907Z,101120.20
2022-10-19T14:13:46.147Z,101121.80
2022-10-19T14:16:46.875Z,101077.00
2022-10-19T14:19:33.437Z,101099.40
2022-10-19T14:22:27.750Z,101120.00
2022-10-19T14:25:15.609Z,101088.00
2022-10-19T14:27:45.942Z,101085.40
2022-10-19T14:30:27.475Z,101118.20
2022-10-19T14:33:02.242Z,101124.20
2022-10-19T14:35:46.507Z,101124.00
2022-10-19T14:38:35.010Z,101121.00
2022-10-19T14:41:18.982Z,101118.20
2022-10-19T14:43:58.949Z,101131.80
2022-10-19T14:46:30.170Z,101132.80
2022-10-19T14:49:02.092Z,101132.20
2022-10-19T14:51:36.362Z,101136.00
2022-10-19T14:54:08.007Z,101130.60
2022-10-19T14:56:42.700Z,101128.00
2022-10-19T14:59:22.958Z,101126.20
2022-10-19T15:01:55.259Z,101123.00
2022-10-19T15:04:26.437Z,101118.80
2022-10-19T15:06:56.022Z,101124.80
2022-10-19T15:09:37.123Z,101129.80
2022-10-19T15:12:16.650Z,101128.60
2022-10-19T15:14:47.090Z,101130.60
2022-10-19T15:17:27.145Z,101131.80
2022-10-19T15:19:58.775Z,101126.00
2022-10-19T15:22:40.146Z,101128.40
2022-10-19T15:25:27.579Z,101132.60
2022-10-19T15:27:57.506Z,101130.80
2022-10-19T15:30:36.900Z,101130.80
2022-10-19T15:36:33.449Z,101136.00
2022-10-19T15:39:18.165Z,101133.80
2022-10-19T15:41:53.749Z,101139.00
2022-10-19T15:44:33.864Z,101138.60
2022-10-19T15:47:20.259Z,101141.40
2022-10-19T15:49:55.324Z,101140.80
2022-10-19T15:52:25.162Z,101139.40
2022-10-19T15:54:55.276Z,101140.80
2022-10-19T15:57:27.693Z,101135.60
2022-10-19T15:59:58.345Z,101134.20
2022-10-19T16:02:27.203Z,101138.20
2022-10-19T16:04:55.925Z,101143.20
2022-10-19T16:07:30.240Z,101141.60
2022-10-19T16:09:59.628Z,101142.80
2022-10-19T16:12:28.106Z,101142.00
2022-10-19T16:14:56.524Z,101137.00
2022-10-19T16:17:25.138Z,101144.00
2022-10-19T16:19:53.953Z,101142.20
2022-10-19T16:22:25.554Z,101138.60
2022-10-19T16:24:54.174Z,101150.00
2022-10-19T16:27:22.964Z,101162.20
2022-10-19T16:29:51.675Z,101161.60
2022-10-19T16:32:22.741Z,101166.20
2022-10-19T16:34:53.050Z,101173.60
2022-10-19T16:37:22.124Z,101175.60
2022-10-19T16:39:50.859Z,101177.00
2022-10-19T16:42:21.195Z,101181.20
2022-10-19T16:45:04.205Z,101186.00
2022-10-19T16:47:58.903Z,101189.00
2022-10-19T16:50:27.606Z,101188.80
2022-10-19T16:53:06.170Z,101192.40
2022-10-19T16:55:34.680Z,101192.40
2022-10-19T16:58:03.235Z,101194.80
2022-10-19T17:00:31.839Z,101193.00
2022-10-19T17:03:00.552Z,101193.00
2022-10-19T17:05:29.092Z,101195.40
2022-10-19T17:07:58.892Z,101201.80
2022-10-19T17:10:27.808Z,101199.20
2022-10-19T17:12:56.871Z,101201.00
2022-10-19T17:15:42.462Z,101204.40
2022-10-19T17:18:11.667Z,101208.00
2022-10-19T17:20:40.367Z,101216.20
2022-10-19T17:23:08.756Z,101218.80
2022-10-19T17:25:37.168Z,101221.40
2022-10-19T17:28:08.195Z,101224.20
2022-10-19T17:30:41.211Z,101230.00
2022-10-19T17:33:09.957Z,101233.00
2022-10-19T17:35:38.351Z,101232.40
2022-10-19T17:38:10.075Z,101236.40
2022-10-19T17:40:40.450Z,101239.00
2022-10-19T17:43:25.579Z,101243.00
2022-10-19T17:46:20.859Z,101245.00
2022-10-19T17:48:55.059Z,101253.20
2022-10-19T17:51:30.368Z,101254.20
2022-10-19T17:54:01.405Z,101254.40
2022-10-19T17:56:30.879Z,101254.60
2022-10-19T17:59:03.007Z,101255.40
2022-10-19T18:01:33.306Z,101255.80
2022-10-19T18:04:02.986Z,101252.60
2022-10-19T18:06:47.026Z,101254.60
2022-10-19T18:09:17.666Z,101261.60
2022-10-19T18:11:47.567Z,101260.60
2022-10-19T18:14:41.542Z,101262.40
2022-10-19T18:17:44.212Z,101261.80
2022-10-19T18:20:22.533Z,101266.00
2022-10-19T18:22:53.717Z,101269.60
2022-10-19T18:25:42.124Z,101265.20
2022-10-19T18:28:27.024Z,101270.20
2022-10-19T18:30:55.780Z,101268.00
2022-10-19T18:33:28.086Z,101270.60
2022-10-19T18:36:00.564Z,101270.60
2022-10-19T18:38:31.428Z,101272.60
2022-10-19T18:41:18.483Z,101267.80
2022-10-19T18:43:53.221Z,101271.00
2022-10-19T18:46:25.497Z,101267.60
2022-10-19T18:48:54.515Z,101270.40
2022-10-19T18:51:24.711Z,101273.00
2022-10-19T18:53:54.770Z,101270.60
2022-10-19T18:56:35.972Z,101269.80
2022-10-19T18:59:06.804Z,101266.20
2022-10-19T19:01:38.763Z,101260.40
2022-10-19T19:04:09.345Z,101268.40
2022-10-19T19:06:39.060Z,101271.20
2022-10-19T19:09:21.274Z,101271.20
2022-10-19T19:12:08.209Z,101274.00
2022-10-19T19:14:47.239Z,101271.60
2022-10-19T19:17:17.516Z,101271.40
2022-10-19T19:20:44.967Z,101276.80
2022-10-19T19:24:21.224Z,101281.20
2022-10-19T19:27:19.093Z,101282.80
2022-10-19T19:30:04.117Z,101283.80
2022-10-19T19:32:34.463Z,101288.00
2022-10-19T19:35:03.079Z,101288.80
2022-10-19T19:37:31.284Z,101288.20
2022-10-19T19:39:59.581Z,101293.60
2022-10-19T19:42:28.081Z,101296.20
2022-10-19T19:44:56.520Z,101295.80
2022-10-19T19:47:24.930Z,101296.60
2022-10-19T19:49:53.497Z,101288.40
2022-10-19T19:52:24.816Z,101289.40
2022-10-19T19:54:55.471Z,101292.80
2022-10-19T19:57:38.547Z,101290.00
2022-10-19T20:00:10.755Z,101300.20
2022-10-19T20:02:41.942Z,101303.80
2022-10-19T20:05:10.964Z,101301.60
2022-10-19T20:07:39.758Z,101305.00
2022-10-19T20:10:09.877Z,101306.00
2022-10-19T20:12:39.075Z,101302.60
2022-10-19T20:15:15.045Z,101299.60
2022-10-19T20:17:46.514Z,101302.60
2022-10-19T20:20:17.331Z,101301.40
2022-10-19T20:22:50.503Z,101298.60
2022-10-19T20:25:34.099Z,101300.60
2022-10-19T20:28:05.454Z,101301.20
2022-10-19T20:30:34.816Z,101306.60
2022-10-19T20:33:04.109Z,101309.20
2022-10-19T20:35:37.508Z,101307.60
2022-10-19T20:38:08.196Z,101302.20
2022-10-19T20:41:10.001Z,101303.00
2022-10-19T20:43:38.465Z,101304.20
2022-10-19T20:46:10.181Z,101308.40
2022-10-19T20:48:39.739Z,101304.20
2022-10-19T20:51:13.840Z,101304.00
2022-10-19T20:53:51.315Z,101308.80
2022-10-19T20:56:28.801Z,101312.40
2022-10-19T20:58:58.067Z,101309.40
2022-10-19T21:01:27.824Z,101315.00
2022-10-19T21:04:00.943Z,101313.40
2022-10-19T21:06:46.637Z,101310.00
2022-10-19T21:09:18.805Z,101316.60
2022-10-19T21:11:49.577Z,101319.60
2022-10-19T21:14:23.754Z,101319.80
2022-10-19T21:16:57.167Z,101320.20
2022-10-19T21:19:31.149Z,101323.60
2022-10-19T21:22:01.732Z,101322.40
2022-10-19T21:24:32.235Z,101324.60
2022-10-19T21:27:03.329Z,101327.20
2022-10-19T21:29:31.925Z,101325.20
2022-10-19T21:32:00.752Z,101330.20
2022-10-19T21:34:30.873Z,101320.60
2022-10-19T21:37:00.177Z,101325.00
2022-10-19T21:39:31.785Z,101328.80
2022-10-19T21:42:02.699Z,101329.20
2022-10-19T21:44:37.686Z,101328.80
2022-10-19T21:47:12.936Z,101322.20
2022-10-19T21:49:45.744Z,101329.00
2022-10-19T21:52:20.917Z,101326.60
2022-10-19T21:54:55.923Z,101333.60
2022-10-19T21:57:25.619Z,101334.60
2022-10-19T22:00:03.035Z,101340.00
2022-10-19T22:02:44.893Z,101342.60
2022-10-19T22:05:15.789Z,101337.40
2022-10-19T22:07:56.477Z,101341.20
2022-10-19T22:10:27.817Z,101337.40
2022-10-19T22:12:56.810Z,101336.00
2022-10-19T22:15:25.248Z,101331.00
2022-10-19T22:17:55.741Z,101336.20
2022-10-19T22:20:24.498Z,101335.20
2022-10-19T22:22:54.974Z,101338.60
2022-10-19T22:25:23.751Z,101342.40
2022-10-19T22:27:52.062Z,101342.20
2022-10-19T22:30:20.512Z,101342.00
2022-10-19T22:32:48.903Z,101341.00
2022-10-19T22:35:17.728Z,101344.60
2022-10-19T22:37:46.247Z,101351.20
2022-10-19T22:40:14.751Z,101344.40
2022-10-19T22:42:43.197Z,101356.60
2022-10-19T22:45:11.542Z,101355.20
2022-10-19T22:47:39.942Z,101357.20
2022-10-19T22:50:11.123Z,101356.60
2022-10-19T22:52:39.595Z,101355.20
2022-10-19T22:55:08.988Z,101351.60
2022-10-19T22:57:37.450Z,101348.60
2022-10-19T23:00:08.363Z,101350.60
2022-10-19T23:02:37.082Z,101355.40
2022-10-19T23:05:06.736Z,101350.80
2022-10-19T23:07:36.826Z,101355.00
2022-10-19T23:10:07.306Z,101357.60
2022-10-19T23:12:35.701Z,101358.40
2022-10-19T23:15:04.614Z,101355.40
2022-10-19T23:17:33.208Z,101350.20
2022-10-19T23:20:01.667Z,101356.00
2022-10-19T23:22:29.992Z,101351.80
2022-10-19T23:24:58.266Z,101351.60
2022-10-19T23:27:26.661Z,101350.60
2022-10-19T23:29:54.984Z,101347.00
2022-10-19T23:32:23.443Z,101351.60
2022-10-19T23:34:51.751Z,101344.80
2022-10-19T23:37:20.076Z,101344.60
2022-10-19T23:39:48.458Z,101343.60
2022-10-19T23:42:16.744Z,101339.20
2022-10-19T23:44:45.055Z,101333.40
2022-10-19T23:47:13.513Z,101333.80
2022-10-19T23:49:42.016Z,101334.40
2022-10-19T23:52:10.533Z,101332.40
2022-10-19T23:54:39.168Z,101332.40
2022-10-19T23:57:07.729Z,101331.60
2022-10-19T23:59:36.239Z,101331.60
